createdAt,value
2018-07-31T00:21:29.777Z,100944.69
2018-07-31T00:23:59.512Z,100949.67
2018-07-31T00:26:29.465Z,100948.70
2018-07-31T00:28:58.930Z,100951.87
2018-07-31T00:31:28.791Z,100948.00
2018-07-31T00:33:58.682Z,100943.77
2018-07-31T00:36:28.482Z,100942.51
2018-07-31T00:38:58.263Z,100945.41
2018-07-31T00:41:28.075Z,100941.19
2018-07-31T00:43:57.964Z,100939.05
2018-07-31T00:46:27.847Z,100939.61
2018-07-31T00:48:57.681Z,100938.83
2018-07-31T00:51:27.392Z,100943.34
2018-07-31T00:53:57.285Z,100942.98
2018-07-31T00:56:27.149Z,100942.39
2018-07-31T00:58:56.904Z,100940.95
2018-07-31T01:01:26.829Z,100943.84
2018-07-31T01:03:56.606Z,100942.88
2018-07-31T01:06:27.427Z,100937.58
2018-07-31T01:08:57.291Z,100942.97
2018-07-31T01:11:27.057Z,100939.81
2018-07-31T01:13:56.858Z,100938.63
2018-07-31T01:16:26.602Z,100934.28
2018-07-31T01:18:56.417Z,100929.67
2018-07-31T01:21:26.337Z,100927.63
2018-07-31T01:23:56.160Z,100928.89
2018-07-31T01:26:25.908Z,100927.93
2018-07-31T01:28:55.797Z,100922.53
2018-07-31T01:31:25.669Z,100927.05
2018-07-31T01:33:55.439Z,100927.52
2018-07-31T01:36:25.195Z,100937.18
2018-07-31T01:38:55.034Z,100927.94
2018-07-31T01:41:24.845Z,100925.22
2018-07-31T01:43:54.547Z,100923.47
2018-07-31T01:46:24.368Z,100929.81
2018-07-31T01:48:54.122Z,100924.34
2018-07-31T01:51:23.984Z,100931.14
2018-07-31T01:53:53.775Z,100926.89
2018-07-31T01:56:23.522Z,100930.25
2018-07-31T01:58:53.378Z,100923.86
2018-07-31T02:01:23.108Z,100922.73
2018-07-31T02:03:52.932Z,100916.16
2018-07-31T02:06:26.706Z,100915.68
2018-07-31T02:08:57.699Z,100925.23
2018-07-31T02:11:27.580Z,100920.25
2018-07-31T02:13:57.441Z,100921.45
2018-07-31T02:16:27.218Z,100919.57
2018-07-31T02:18:57.096Z,100919.03
2018-07-31T02:21:27.892Z,100919.55
2018-07-31T02:23:57.662Z,100923.70
2018-07-31T02:26:27.360Z,100923.23
2018-07-31T02:28:57.062Z,100920.59
2018-07-31T02:31:27.462Z,100926.72
2018-07-31T02:33:57.484Z,100929.64
2018-07-31T02:36:27.228Z,100928.66
2018-07-31T02:38:57.128Z,100932.17
2018-07-31T02:41:26.992Z,100931.30
2018-07-31T02:43:56.908Z,100938.42
2018-07-31T02:46:26.727Z,100939.80
2018-07-31T02:48:56.545Z,100938.92
2018-07-31T02:51:26.384Z,100937.58
2018-07-31T02:53:56.108Z,100938.60
2018-07-31T02:56:25.918Z,100936.81
2018-07-31T02:58:55.680Z,100940.52
2018-07-31T03:01:25.561Z,100941.73
2018-07-31T03:03:55.696Z,100943.02
2018-07-31T03:06:25.676Z,100946.88
2018-07-31T03:08:55.422Z,100948.22
2018-07-31T03:11:25.600Z,100936.87
2018-07-31T03:13:55.396Z,100941.92
2018-07-31T03:16:25.174Z,100935.94
2018-07-31T03:18:54.626Z,100935.14
2018-07-31T03:21:24.428Z,100936.88
2018-07-31T03:23:54.238Z,100941.78
2018-07-31T03:26:24.033Z,100937.20
2018-07-31T03:28:53.856Z,100931.44
2018-07-31T03:31:23.614Z,100928.28
2018-07-31T03:33:53.933Z,100938.94
2018-07-31T03:36:23.701Z,100946.42
2018-07-31T03:38:53.480Z,100935.52
2018-07-31T03:41:23.183Z,100932.77
2018-07-31T03:43:53.505Z,100935.19
2018-07-31T03:46:23.342Z,100930.67
2018-07-31T03:48:53.099Z,100931.75
2018-07-31T03:51:22.915Z,100930.75
2018-07-31T03:53:52.724Z,100932.13
2018-07-31T03:56:22.758Z,100926.92
2018-07-31T03:58:52.559Z,100925.97
2018-07-31T04:01:22.270Z,100925.02
2018-07-31T04:03:52.033Z,100920.39
2018-07-31T04:06:21.839Z,100916.78
2018-07-31T04:08:51.719Z,100923.16
2018-07-31T04:11:21.492Z,100922.43
2018-07-31T04:13:51.271Z,100918.87
2018-07-31T04:16:21.063Z,100918.59
2018-07-31T04:18:50.911Z,100922.73
2018-07-31T04:21:20.709Z,100924.42
2018-07-31T04:23:50.443Z,100924.95
2018-07-31T04:26:20.254Z,100919.55
2018-07-31T04:28:50.021Z,100921.11
2018-07-31T04:31:19.775Z,100923.88
2018-07-31T04:33:49.468Z,100917.64
2018-07-31T04:36:19.454Z,100923.81
2018-07-31T04:38:49.183Z,100925.56
2018-07-31T04:41:19.668Z,100934.72
2018-07-31T04:43:49.454Z,100932.51
2018-07-31T04:46:19.221Z,100927.51
2018-07-31T04:48:48.986Z,100930.30
2018-07-31T04:51:18.699Z,100931.47
2018-07-31T04:53:48.467Z,100927.78
2018-07-31T04:56:18.190Z,100926.49
2018-07-31T04:58:47.989Z,100926.31
2018-07-31T05:01:17.790Z,100925.23
2018-07-31T05:03:47.217Z,100927.27
2018-07-31T05:06:17.008Z,100927.34
2018-07-31T05:08:46.886Z,100918.59
2018-07-31T05:11:16.714Z,100928.97
2018-07-31T05:13:46.720Z,100925.50
2018-07-31T05:16:16.522Z,100924.31
2018-07-31T05:18:46.314Z,100919.25
2018-07-31T05:21:16.130Z,100913.92
2018-07-31T05:23:46.043Z,100924.70
2018-07-31T05:26:15.894Z,100921.95
2018-07-31T05:28:46.620Z,100930.85
2018-07-31T05:31:16.610Z,100927.59
2018-07-31T05:33:46.454Z,100923.07
2018-07-31T05:36:16.390Z,100928.13
2018-07-31T05:38:46.140Z,100931.95
2018-07-31T05:41:16.044Z,100933.13
2018-07-31T05:43:45.810Z,100930.62
2018-07-31T05:46:15.853Z,100931.05
2018-07-31T05:48:45.654Z,100937.88
2018-07-31T05:51:15.606Z,100938.66
2018-07-31T05:53:45.631Z,100942.05
2018-07-31T05:56:15.510Z,100945.16
2018-07-31T05:58:46.132Z,100942.24
2018-07-31T06:01:15.958Z,100944.97
2018-07-31T06:03:45.803Z,100940.10
2018-07-31T06:06:15.940Z,100941.72
2018-07-31T06:08:45.856Z,100939.39
2018-07-31T06:11:15.858Z,100940.28
2018-07-31T06:13:45.841Z,100938.52
2018-07-31T06:16:15.776Z,100939.28
2018-07-31T06:18:45.601Z,100947.95
2018-07-31T06:21:15.458Z,100945.73
2018-07-31T06:23:45.375Z,100938.10
2018-07-31T06:26:15.278Z,100941.31
2018-07-31T06:28:49.129Z,100938.37
2018-07-31T06:31:18.935Z,100930.26
2018-07-31T06:33:48.926Z,100936.81
2018-07-31T06:36:18.662Z,100934.30
2018-07-31T06:38:48.634Z,100936.67
2018-07-31T06:41:19.008Z,100937.92
2018-07-31T06:43:48.757Z,100934.52
2018-07-31T06:46:18.762Z,100941.78
2018-07-31T06:48:48.574Z,100940.20
2018-07-31T06:51:18.548Z,100941.06
2018-07-31T06:53:48.296Z,100938.37
2018-07-31T06:56:18.257Z,100943.58
2018-07-31T06:58:48.068Z,100942.95
2018-07-31T07:01:17.819Z,100941.86
2018-07-31T07:03:48.057Z,100941.06
2018-07-31T07:06:17.882Z,100939.70
2018-07-31T07:08:49.082Z,100941.91
2018-07-31T07:11:19.010Z,100940.64
2018-07-31T07:13:48.816Z,100937.92
2018-07-31T07:16:18.739Z,100932.81
2018-07-31T07:18:49.248Z,100938.03
2018-07-31T07:21:19.157Z,100937.66
2018-07-31T07:23:49.068Z,100936.93
2018-07-31T07:26:18.946Z,100934.09
2018-07-31T07:28:48.863Z,100938.75
2018-07-31T07:31:19.433Z,100942.56
2018-07-31T07:33:53.457Z,100937.54
2018-07-31T07:36:25.244Z,100935.56
2018-07-31T07:38:58.850Z,100938.98
2018-07-31T07:41:28.817Z,100930.30
2018-07-31T07:43:58.933Z,100933.56
2018-07-31T07:46:28.803Z,100930.22
2018-07-31T07:48:58.641Z,100936.28
2018-07-31T07:51:28.553Z,100934.88
2018-07-31T07:53:58.428Z,100932.02
2018-07-31T07:56:28.223Z,100927.91
2018-07-31T07:58:58.146Z,100923.31
2018-07-31T08:01:28.003Z,100924.70
2018-07-31T08:03:57.904Z,100921.30
2018-07-31T08:06:27.341Z,100928.70
2018-07-31T08:08:57.181Z,100919.41
2018-07-31T08:11:27.172Z,100924.05
2018-07-31T08:13:57.090Z,100924.94
2018-07-31T08:16:26.956Z,100924.85
2018-07-31T08:18:56.748Z,100923.89
2018-07-31T08:21:26.553Z,100924.02
2018-07-31T08:23:56.370Z,100927.38
2018-07-31T08:26:26.138Z,100922.42
2018-07-31T08:28:55.925Z,100921.93
2018-07-31T08:31:25.915Z,100919.14
2018-07-31T08:33:55.786Z,100927.58
2018-07-31T08:36:25.717Z,100923.55
2018-07-31T08:38:55.527Z,100922.58
2018-07-31T08:41:25.715Z,100928.70
2018-07-31T08:43:55.451Z,100929.85
2018-07-31T08:46:25.469Z,100927.77
2018-07-31T08:48:55.337Z,100936.81
2018-07-31T08:51:25.201Z,100932.45
2018-07-31T08:53:54.986Z,100930.59
2018-07-31T08:56:24.805Z,100933.09
2018-07-31T08:58:54.808Z,100930.58
2018-07-31T09:01:24.605Z,100934.23
2018-07-31T09:03:54.563Z,100926.30
2018-07-31T09:06:24.369Z,100927.67
2018-07-31T09:08:54.467Z,100925.89
2018-07-31T09:11:24.460Z,100930.94
2018-07-31T09:13:54.256Z,100932.86
2018-07-31T09:16:24.089Z,100928.52
2018-07-31T09:18:53.889Z,100933.29
2018-07-31T09:21:23.654Z,100927.14
2018-07-31T09:23:53.558Z,100927.51
2018-07-31T09:26:23.616Z,100924.06
2018-07-31T09:28:53.448Z,100924.02
2018-07-31T09:31:23.249Z,100922.53
2018-07-31T09:33:53.577Z,100929.87
2018-07-31T09:36:23.330Z,100922.69
2018-07-31T09:38:53.260Z,100916.94
2018-07-31T09:41:23.041Z,100912.39
2018-07-31T09:43:52.800Z,100889.53
2018-07-31T09:46:22.614Z,100911.89
2018-07-31T09:48:52.720Z,100908.95
2018-07-31T09:51:22.474Z,100903.27
2018-07-31T09:53:52.345Z,100905.78
2018-07-31T09:56:22.198Z,100909.31
2018-07-31T09:58:52.024Z,100907.97
2018-07-31T10:01:22.003Z,100905.48
2018-07-31T10:03:52.040Z,100900.34
2018-07-31T10:06:21.866Z,100904.29
2018-07-31T10:08:51.665Z,100903.22
2018-07-31T10:11:21.434Z,100902.33
2018-07-31T10:13:51.176Z,100899.16
2018-07-31T10:16:20.933Z,100895.28
2018-07-31T10:18:50.770Z,100892.94
2018-07-31T10:21:20.588Z,100899.39
2018-07-31T10:23:50.502Z,100884.39
2018-07-31T10:26:20.338Z,100886.84
2018-07-31T10:28:50.846Z,100890.00
2018-07-31T10:31:20.719Z,100884.39
2018-07-31T10:33:51.244Z,100875.09
2018-07-31T10:36:22.091Z,100878.75
2018-07-31T10:38:51.899Z,100877.34
2018-07-31T10:41:23.658Z,100871.22
2018-07-31T10:43:53.643Z,100883.19
2018-07-31T10:46:23.134Z,100889.38
2018-07-31T10:48:53.459Z,100867.93
2018-07-31T10:51:23.392Z,100870.84
2018-07-31T10:53:53.390Z,100873.25
2018-07-31T10:56:23.342Z,100878.48
2018-07-31T10:58:53.912Z,100877.65
2018-07-31T11:01:23.968Z,100871.75
2018-07-31T11:03:56.530Z,100873.28
2018-07-31T11:06:26.356Z,100870.39
2018-07-31T11:08:56.384Z,100866.23
2018-07-31T11:11:26.772Z,100865.52
2018-07-31T11:13:56.944Z,100857.70
2018-07-31T11:16:27.701Z,100859.63
2018-07-31T11:18:59.680Z,100857.31
2018-07-31T11:21:31.120Z,100852.92
2018-07-31T11:24:03.446Z,100848.62
2018-07-31T11:26:34.416Z,100847.78
2018-07-31T11:29:05.139Z,100848.32
2018-07-31T11:31:36.308Z,100846.33
2018-07-31T11:34:07.941Z,100840.13
2018-07-31T11:36:38.841Z,100841.37
2018-07-31T11:39:12.637Z,100839.17
2018-07-31T11:41:43.683Z,100839.47
2018-07-31T11:44:15.849Z,100832.56
2018-07-31T11:46:45.982Z,100833.58
2018-07-31T11:49:16.506Z,100830.06
2018-07-31T11:51:47.843Z,100829.58
2018-07-31T11:54:18.652Z,100833.09
2018-07-31T11:56:49.048Z,100821.74
2018-07-31T11:59:21.489Z,100826.75
2018-07-31T12:01:53.316Z,100821.50
2018-07-31T12:04:25.866Z,100824.55
2018-07-31T12:06:55.835Z,100820.34
2018-07-31T12:09:26.108Z,100812.09
2018-07-31T12:12:03.931Z,100810.00
2018-07-31T12:14:34.972Z,100813.27
2018-07-31T12:17:06.284Z,100809.86
2018-07-31T12:19:36.315Z,100807.95
2018-07-31T12:22:07.717Z,100815.43
2018-07-31T12:24:37.578Z,100808.59
2018-07-31T12:27:07.537Z,100805.52
2018-07-31T12:29:37.974Z,100804.39
2018-07-31T12:32:08.286Z,100805.91
2018-07-31T12:34:38.920Z,100800.55
2018-07-31T12:37:08.983Z,100803.75
2018-07-31T12:39:39.140Z,100798.69
2018-07-31T12:42:09.067Z,100801.55
2018-07-31T12:44:39.112Z,100803.19
2018-07-31T12:47:10.807Z,100795.83
2018-07-31T12:49:41.055Z,100797.16
2018-07-31T12:52:11.490Z,100797.20
2018-07-31T12:54:41.428Z,100791.55
2018-07-31T12:57:14.284Z,100788.91
2018-07-31T12:59:45.007Z,100790.31
2018-07-31T13:02:14.926Z,100784.91
2018-07-31T13:04:44.981Z,100789.03
2018-07-31T13:07:14.882Z,100789.89
2018-07-31T13:09:44.681Z,100785.95
2018-07-31T13:12:19.303Z,100784.23
2018-07-31T13:14:50.161Z,100785.09
2018-07-31T13:17:20.121Z,100780.80
2018-07-31T13:19:51.977Z,100778.92
2018-07-31T13:22:21.891Z,100782.78
2018-07-31T13:24:52.396Z,100775.70
2018-07-31T13:27:22.504Z,100772.42
2018-07-31T13:29:53.048Z,100767.80
2018-07-31T13:32:26.499Z,100775.38
2018-07-31T13:35:02.953Z,100769.55
2018-07-31T13:37:34.750Z,100764.81
2018-07-31T13:40:05.188Z,100765.35
2018-07-31T13:42:35.786Z,100768.89
2018-07-31T13:45:06.214Z,100771.34
2018-07-31T13:47:36.963Z,100764.01
2018-07-31T13:50:07.034Z,100760.27
2018-07-31T13:52:36.961Z,100762.14
2018-07-31T13:55:07.022Z,100763.00
2018-07-31T13:57:37.378Z,100754.23
2018-07-31T14:00:07.599Z,100751.98
2018-07-31T14:02:37.909Z,100753.23
2018-07-31T14:05:08.101Z,100752.30
2018-07-31T14:07:38.592Z,100751.39
2018-07-31T14:10:08.499Z,100755.91
2018-07-31T14:12:38.341Z,100743.20
2018-07-31T14:15:08.167Z,100746.29
2018-07-31T14:17:37.897Z,100747.29
2018-07-31T14:20:07.739Z,100747.86
2018-07-31T14:22:37.568Z,100747.38
2018-07-31T14:25:07.419Z,100747.05
2018-07-31T14:27:37.991Z,100743.48
2018-07-31T14:30:08.243Z,100750.14
2018-07-31T14:32:38.238Z,100741.41
2018-07-31T14:35:08.111Z,100737.47
2018-07-31T14:37:38.968Z,100734.70
2018-07-31T14:40:08.858Z,100733.68
2018-07-31T14:42:38.659Z,100731.80
2018-07-31T14:45:08.579Z,100733.01
2018-07-31T14:47:38.450Z,100730.41
2018-07-31T14:50:08.702Z,100731.94
2018-07-31T14:52:38.547Z,100719.38
2018-07-31T14:55:08.983Z,100724.31
2018-07-31T14:57:38.734Z,100726.81
2018-07-31T15:00:09.967Z,100718.94
2018-07-31T15:02:39.842Z,100725.13
2018-07-31T15:05:09.663Z,100722.04
2018-07-31T15:07:40.191Z,100723.52
2018-07-31T15:10:10.535Z,100721.00
2018-07-31T15:12:40.233Z,100714.30
2018-07-31T15:15:10.040Z,100716.94
2018-07-31T15:17:39.834Z,100727.09
2018-07-31T15:20:10.709Z,100723.42
2018-07-31T15:22:40.577Z,100722.77
2018-07-31T15:25:10.522Z,100715.19
2018-07-31T15:27:40.351Z,100716.71
2018-07-31T15:30:11.246Z,100722.05
2018-07-31T15:32:40.976Z,100713.64
2018-07-31T15:35:10.716Z,100711.77
2018-07-31T15:37:40.486Z,100710.38
2018-07-31T15:40:10.257Z,100713.30
2018-07-31T15:42:41.025Z,100709.69
2018-07-31T15:45:10.951Z,100713.47
2018-07-31T15:47:40.700Z,100711.22
2018-07-31T15:50:10.471Z,100711.70
2018-07-31T15:52:40.189Z,100701.59
2018-07-31T15:55:10.590Z,100700.76
2018-07-31T15:57:43.998Z,100706.91
2018-07-31T16:00:13.793Z,100703.90
2018-07-31T16:02:44.145Z,100698.96
2018-07-31T16:05:14.174Z,100700.56
2018-07-31T16:07:44.033Z,100699.41
2018-07-31T16:10:14.239Z,100697.64
2018-07-31T16:12:45.857Z,100696.62
2018-07-31T16:15:15.808Z,100698.48
2018-07-31T16:17:45.849Z,100699.88
2018-07-31T16:20:15.826Z,100694.67
2018-07-31T16:22:46.418Z,100701.36
2018-07-31T16:25:17.426Z,100696.01
2018-07-31T16:27:47.898Z,100697.27
2018-07-31T16:30:18.156Z,100691.55
2018-07-31T16:32:48.307Z,100697.89
2018-07-31T16:35:18.203Z,100691.03
2018-07-31T16:37:49.035Z,100689.02
2018-07-31T16:40:19.432Z,100682.28
2018-07-31T16:42:49.597Z,100687.46
2018-07-31T16:45:20.394Z,100687.13
2018-07-31T16:47:50.374Z,100616.02
2018-07-31T16:50:20.585Z,100691.30
2018-07-31T16:52:50.873Z,100687.42
2018-07-31T16:55:21.191Z,100691.37
2018-07-31T16:57:52.051Z,100686.86
2018-07-31T17:00:22.526Z,100687.16
2018-07-31T17:02:52.944Z,100685.42
2018-07-31T17:05:23.989Z,100682.25
2018-07-31T17:07:54.190Z,100680.67
2018-07-31T17:10:24.719Z,100677.85
2018-07-31T17:12:54.710Z,100685.17
2018-07-31T17:15:24.573Z,100682.55
2018-07-31T17:18:09.164Z,100683.19
2018-07-31T17:20:39.445Z,100681.30
2018-07-31T17:23:09.582Z,100681.59
2018-07-31T17:25:40.027Z,100679.56
2018-07-31T17:28:09.965Z,100685.58
2018-07-31T17:30:40.109Z,100688.07
2018-07-31T17:33:14.921Z,100683.44
2018-07-31T17:35:44.899Z,100691.00
2018-07-31T17:38:19.366Z,100692.38
2018-07-31T17:40:49.408Z,100693.17
2018-07-31T17:43:19.621Z,100697.88
2018-07-31T17:45:49.860Z,100692.61
2018-07-31T17:48:21.349Z,100704.41
2018-07-31T17:50:51.453Z,100706.73
2018-07-31T17:53:21.622Z,100655.91
2018-07-31T17:55:52.789Z,100702.78
2018-07-31T17:58:24.674Z,100710.72
2018-07-31T18:00:54.825Z,100712.83
2018-07-31T18:03:25.377Z,100715.43
2018-07-31T18:05:55.708Z,100717.71
2018-07-31T18:08:27.079Z,100717.91
2018-07-31T18:10:58.363Z,100713.97
2018-07-31T18:14:05.819Z,100717.25
2018-07-31T18:16:36.381Z,100719.26
2018-07-31T18:19:06.675Z,100724.38
2018-07-31T18:21:40.152Z,100726.95
2018-07-31T18:24:10.355Z,100727.74
2018-07-31T18:26:41.693Z,100730.34
2018-07-31T18:29:12.023Z,100737.52
2018-07-31T18:31:45.392Z,100746.18
2018-07-31T18:34:20.803Z,100738.70
2018-07-31T18:36:52.137Z,100745.16
2018-07-31T18:39:22.186Z,100744.05
2018-07-31T18:41:52.406Z,100751.75
2018-07-31T18:44:22.445Z,100759.09
2018-07-31T18:46:52.629Z,100758.43
2018-07-31T18:49:22.752Z,100757.31
2018-07-31T18:51:53.134Z,100721.47
2018-07-31T18:54:23.329Z,100759.58
2018-07-31T18:56:53.188Z,100767.77
2018-07-31T18:59:24.113Z,100769.15
2018-07-31T19:01:54.040Z,100769.64
2018-07-31T19:04:23.974Z,100767.66
2018-07-31T19:06:54.623Z,100767.84
2018-07-31T19:09:24.530Z,100774.67
2018-07-31T19:11:54.342Z,100746.13
2018-07-31T19:14:24.324Z,100781.31
2018-07-31T19:16:54.272Z,100789.60
2018-07-31T19:19:24.241Z,100789.27
2018-07-31T19:21:54.301Z,100788.48
2018-07-31T19:24:24.281Z,100788.91
2018-07-31T19:26:55.037Z,100788.94
2018-07-31T19:29:25.864Z,100784.28
2018-07-31T19:31:55.709Z,100789.96
2018-07-31T19:34:26.305Z,100795.75
2018-07-31T19:36:56.298Z,100799.65
2018-07-31T19:39:26.901Z,100795.03
2018-07-31T19:41:56.844Z,100797.48
2018-07-31T19:44:26.816Z,100798.40
2018-07-31T19:46:56.678Z,100802.55
2018-07-31T19:49:26.888Z,100802.89
2018-07-31T19:51:57.255Z,100807.33
2018-07-31T19:54:27.313Z,100808.80
2018-07-31T19:56:59.521Z,100812.39
2018-07-31T19:59:30.034Z,100808.85
2018-07-31T20:02:00.216Z,100809.16
2018-07-31T20:04:30.024Z,100812.53
2018-07-31T20:06:59.832Z,100812.85
2018-07-31T20:09:30.055Z,100818.35
2018-07-31T20:12:01.583Z,100817.17
2018-07-31T20:14:31.103Z,100817.66
2018-07-31T20:17:01.655Z,100818.42
2018-07-31T20:19:31.532Z,100820.37
2018-07-31T20:22:01.369Z,100817.06
2018-07-31T20:24:31.393Z,100813.70
2018-07-31T20:27:02.186Z,100821.34
2018-07-31T20:29:31.916Z,100824.84
2018-07-31T20:32:01.751Z,100830.48
2018-07-31T20:34:31.576Z,100826.59
2018-07-31T20:37:01.408Z,100822.38
2018-07-31T20:39:31.220Z,100825.30
2018-07-31T20:42:01.032Z,100829.22
2018-07-31T20:44:31.138Z,100820.45
2018-07-31T20:47:01.103Z,100836.92
2018-07-31T20:49:30.989Z,100832.27
2018-07-31T20:52:00.812Z,100838.20
2018-07-31T20:54:32.142Z,100837.95
2018-07-31T20:57:02.055Z,100837.25
2018-07-31T20:59:31.955Z,100848.11
2018-07-31T21:02:01.793Z,100847.80
2018-07-31T21:04:31.659Z,100846.81
2018-07-31T21:07:01.667Z,100844.70
2018-07-31T21:09:31.673Z,100853.00
2018-07-31T21:12:01.795Z,100854.48
2018-07-31T21:14:31.712Z,100862.13
2018-07-31T21:17:01.548Z,100857.07
2018-07-31T21:19:31.377Z,100862.88
2018-07-31T21:22:01.277Z,100863.02
2018-07-31T21:24:31.174Z,100862.91
2018-07-31T21:27:00.981Z,100870.53
2018-07-31T21:29:30.833Z,100868.80
2018-07-31T21:32:00.693Z,100868.69
2018-07-31T21:34:30.675Z,100864.27
2018-07-31T21:37:00.726Z,100863.16
2018-07-31T21:39:30.636Z,100868.32
2018-07-31T21:42:01.341Z,100869.80
2018-07-31T21:44:32.143Z,100868.81
2018-07-31T21:47:02.250Z,100866.60
2018-07-31T21:49:32.273Z,100871.39
2018-07-31T21:52:02.187Z,100870.91
2018-07-31T21:54:31.928Z,100863.87
2018-07-31T21:57:01.763Z,100874.86
2018-07-31T21:59:31.574Z,100875.34
2018-07-31T22:02:01.397Z,100873.84
2018-07-31T22:04:31.167Z,100869.68
2018-07-31T22:07:03.743Z,100881.97
2018-07-31T22:09:38.987Z,100876.41
2018-07-31T22:12:09.107Z,100873.95
2018-07-31T22:14:39.268Z,100877.53
2018-07-31T22:17:09.757Z,100871.09
2018-07-31T22:19:41.694Z,100872.56
2018-07-31T22:22:14.917Z,100870.46
2018-07-31T22:24:46.744Z,100870.80
2018-07-31T22:27:17.618Z,100869.94
2018-07-31T22:29:48.610Z,100870.16
2018-07-31T22:32:19.466Z,100874.56
2018-07-31T22:34:50.218Z,100874.06
2018-07-31T22:37:20.219Z,100872.44
2018-07-31T22:39:51.568Z,100875.25
2018-07-31T22:42:25.058Z,100874.23
2018-07-31T22:44:54.945Z,100880.62
2018-07-31T22:47:24.980Z,100882.06
2018-07-31T22:49:55.710Z,100883.41
2018-07-31T22:52:26.764Z,100879.45
2018-07-31T22:54:57.257Z,100883.89
2018-07-31T22:57:30.434Z,100884.60
2018-07-31T23:00:00.942Z,100883.69
2018-07-31T23:02:31.341Z,100880.70
2018-07-31T23:05:02.378Z,100877.14
2018-07-31T23:07:34.048Z,100882.69
2018-07-31T23:10:05.841Z,100885.42
2018-07-31T23:12:37.269Z,100888.21
2018-07-31T23:15:08.459Z,100885.72
2018-07-31T23:17:39.494Z,100887.94
2018-07-31T23:20:10.548Z,100893.23
2018-07-31T23:22:49.712Z,100891.92
2018-07-31T23:25:21.158Z,100891.52
2018-07-31T23:27:51.585Z,100890.28
2018-07-31T23:30:23.248Z,100898.16
2018-07-31T23:32:53.717Z,100893.06
2018-07-31T23:35:24.708Z,100894.90
2018-07-31T23:37:55.400Z,100896.25
2018-07-31T23:40:49.655Z,100897.20
2018-07-31T23:48:30.633Z,100896.80
2018-07-31T23:51:00.597Z,100897.31
2018-07-31T23:53:31.766Z,100898.25
2018-07-31T23:56:26.577Z,100900.09
2018-07-31T23:58:57.924Z,100893.64
